sensor_id;sensor_type;location;lat;lon;timestamp;P1;durP1;ratioP1;P2;durP2;ratioP2
13672;SDS011;6909;52.202;9.876;2023-05-09T00:00:30;1.50;;;1.30;;
13672;SDS011;6909;52.202;9.876;2023-05-09T00:02:56;1.37;;;1.27;;
13672;SDS011;6909;52.202;9.876;2023-05-09T00:05:23;1.23;;;1.00;;
13672;SDS011;6909;52.202;9.876;2023-05-09T00:07:50;1.17;;;1.07;;
13672;SDS011;6909;52.202;9.876;2023-05-09T00:10:17;1.47;;;1.17;;
13672;SDS011;6909;52.202;9.876;2023-05-09T00:12:43;1.70;;;1.57;;
13672;SDS011;6909;52.202;9.876;2023-05-09T00:15:11;1.17;;;0.90;;
13672;SDS011;6909;52.202;9.876;2023-05-09T00:17:39;2.90;;;1.80;;
13672;SDS011;6909;52.202;9.876;2023-05-09T00:20:06;1.87;;;1.60;;
13672;SDS011;6909;52.202;9.876;2023-05-09T00:22:36;1.83;;;1.30;;
13672;SDS011;6909;52.202;9.876;2023-05-09T00:25:03;1.20;;;1.10;;
13672;SDS011;6909;52.202;9.876;2023-05-09T00:27:31;1.97;;;1.33;;
13672;SDS011;6909;52.202;9.876;2023-05-09T00:29:57;1.30;;;1.20;;
13672;SDS011;6909;52.202;9.876;2023-05-09T00:32:24;1.53;;;1.00;;
13672;SDS011;6909;52.202;9.876;2023-05-09T00:34:54;1.10;;;1.00;;
13672;SDS011;6909;52.202;9.876;2023-05-09T00:37:20;1.40;;;0.97;;
13672;SDS011;6909;52.202;9.876;2023-05-09T00:39:47;1.80;;;1.27;;
13672;SDS011;6909;52.202;9.876;2023-05-09T00:42:14;1.43;;;1.13;;
13672;SDS011;6909;52.202;9.876;2023-05-09T00:44:40;1.47;;;1.37;;
13672;SDS011;6909;52.202;9.876;2023-05-09T00:47:07;0.87;;;0.83;;
13672;SDS011;6909;52.202;9.876;2023-05-09T00:49:34;1.67;;;1.13;;
13672;SDS011;6909;52.202;9.876;2023-05-09T00:52:02;1.40;;;1.20;;
13672;SDS011;6909;52.202;9.876;2023-05-09T00:54:30;2.27;;;1.73;;
13672;SDS011;6909;52.202;9.876;2023-05-09T00:56:56;3.23;;;1.60;;
13672;SDS011;6909;52.202;9.876;2023-05-09T00:59:23;2.40;;;1.10;;
13672;SDS011;6909;52.202;9.876;2023-05-09T01:01:50;1.13;;;1.03;;
13672;SDS011;6909;52.202;9.876;2023-05-09T01:04:16;1.50;;;1.20;;
13672;SDS011;6909;52.202;9.876;2023-05-09T01:06:44;1.53;;;1.43;;
13672;SDS011;6909;52.202;9.876;2023-05-09T01:09:20;2.23;;;1.20;;
13672;SDS011;6909;52.202;9.876;2023-05-09T01:11:53;1.27;;;1.17;;
13672;SDS011;6909;52.202;9.876;2023-05-09T01:14:31;1.57;;;1.03;;
13672;SDS011;6909;52.202;9.876;2023-05-09T01:17:04;1.47;;;1.20;;
13672;SDS011;6909;52.202;9.876;2023-05-09T01:22:19;1.20;;;1.10;;
13672;SDS011;6909;52.202;9.876;2023-05-09T01:24:55;1.10;;;0.90;;
13672;SDS011;6909;52.202;9.876;2023-05-09T01:27:34;2.60;;;1.20;;
13672;SDS011;6909;52.202;9.876;2023-05-09T01:30:09;1.50;;;1.33;;
13672;SDS011;6909;52.202;9.876;2023-05-09T01:32:38;1.13;;;0.93;;
13672;SDS011;6909;52.202;9.876;2023-05-09T01:35:07;1.20;;;1.10;;
13672;SDS011;6909;52.202;9.876;2023-05-09T01:37:38;0.83;;;0.77;;
13672;SDS011;6909;52.202;9.876;2023-05-09T01:40:09;1.23;;;1.13;;
13672;SDS011;6909;52.202;9.876;2023-05-09T01:42:41;1.23;;;0.87;;
13672;SDS011;6909;52.202;9.876;2023-05-09T01:45:10;2.03;;;1.33;;
13672;SDS011;6909;52.202;9.876;2023-05-09T01:47:38;3.50;;;1.43;;
13672;SDS011;6909;52.202;9.876;2023-05-09T01:50:06;1.93;;;1.47;;
13672;SDS011;6909;52.202;9.876;2023-05-09T01:52:36;1.73;;;1.30;;
13672;SDS011;6909;52.202;9.876;2023-05-09T01:55:03;1.10;;;1.00;;
13672;SDS011;6909;52.202;9.876;2023-05-09T01:57:31;1.10;;;1.00;;
13672;SDS011;6909;52.202;9.876;2023-05-09T02:00:00;0.70;;;0.70;;
13672;SDS011;6909;52.202;9.876;2023-05-09T02:02:28;2.20;;;1.60;;
13672;SDS011;6909;52.202;9.876;2023-05-09T02:04:55;1.73;;;1.20;;
13672;SDS011;6909;52.202;9.876;2023-05-09T02:07:23;1.40;;;1.30;;
13672;SDS011;6909;52.202;9.876;2023-05-09T02:09:51;1.33;;;1.23;;
13672;SDS011;6909;52.202;9.876;2023-05-09T02:12:20;1.40;;;1.27;;
13672;SDS011;6909;52.202;9.876;2023-05-09T02:14:47;1.70;;;1.13;;
13672;SDS011;6909;52.202;9.876;2023-05-09T02:17:14;1.30;;;1.17;;
13672;SDS011;6909;52.202;9.876;2023-05-09T02:19:43;1.13;;;1.10;;
13672;SDS011;6909;52.202;9.876;2023-05-09T02:22:10;1.47;;;1.13;;
13672;SDS011;6909;52.202;9.876;2023-05-09T02:24:38;1.67;;;1.23;;
13672;SDS011;6909;52.202;9.876;2023-05-09T02:27:05;1.63;;;1.27;;
13672;SDS011;6909;52.202;9.876;2023-05-09T02:29:34;1.63;;;0.90;;
13672;SDS011;6909;52.202;9.876;2023-05-09T02:32:05;3.20;;;2.37;;
13672;SDS011;6909;52.202;9.876;2023-05-09T02:34:34;1.80;;;1.43;;
13672;SDS011;6909;52.202;9.876;2023-05-09T02:37:03;1.87;;;1.47;;
13672;SDS011;6909;52.202;9.876;2023-05-09T02:39:31;1.07;;;0.97;;
13672;SDS011;6909;52.202;9.876;2023-05-09T02:42:03;1.30;;;1.20;;
13672;SDS011;6909;52.202;9.876;2023-05-09T02:44:31;1.87;;;1.77;;
13672;SDS011;6909;52.202;9.876;2023-05-09T02:46:58;2.27;;;1.77;;
13672;SDS011;6909;52.202;9.876;2023-05-09T02:49:25;1.50;;;1.40;;
13672;SDS011;6909;52.202;9.876;2023-05-09T02:51:52;1.40;;;1.20;;
13672;SDS011;6909;52.202;9.876;2023-05-09T02:54:20;1.50;;;1.40;;
13672;SDS011;6909;52.202;9.876;2023-05-09T02:56:46;1.70;;;1.53;;
13672;SDS011;6909;52.202;9.876;2023-05-09T02:59:14;2.20;;;1.60;;
13672;SDS011;6909;52.202;9.876;2023-05-09T03:01:41;1.57;;;1.33;;
13672;SDS011;6909;52.202;9.876;2023-05-09T03:04:07;2.23;;;1.53;;
13672;SDS011;6909;52.202;9.876;2023-05-09T03:06:34;1.57;;;1.30;;
13672;SDS011;6909;52.202;9.876;2023-05-09T03:09:01;2.30;;;1.23;;
13672;SDS011;6909;52.202;9.876;2023-05-09T03:11:30;1.63;;;1.43;;
13672;SDS011;6909;52.202;9.876;2023-05-09T03:13:56;2.10;;;1.73;;
13672;SDS011;6909;52.202;9.876;2023-05-09T03:16:23;2.27;;;1.77;;
13672;SDS011;6909;52.202;9.876;2023-05-09T03:18:49;1.50;;;1.40;;
13672;SDS011;6909;52.202;9.876;2023-05-09T03:21:16;1.77;;;1.53;;
13672;SDS011;6909;52.202;9.876;2023-05-09T03:23:43;2.30;;;1.93;;
13672;SDS011;6909;52.202;9.876;2023-05-09T03:26:09;2.57;;;1.70;;
13672;SDS011;6909;52.202;9.876;2023-05-09T03:28:37;1.83;;;1.63;;
13672;SDS011;6909;52.202;9.876;2023-05-09T03:31:04;1.67;;;1.33;;
13672;SDS011;6909;52.202;9.876;2023-05-09T03:33:31;1.30;;;1.17;;
13672;SDS011;6909;52.202;9.876;2023-05-09T03:35:57;2.60;;;1.03;;
13672;SDS011;6909;52.202;9.876;2023-05-09T03:38:24;1.37;;;1.27;;
13672;SDS011;6909;52.202;9.876;2023-05-09T03:40:51;1.30;;;1.20;;
13672;SDS011;6909;52.202;9.876;2023-05-09T03:43:18;3.20;;;1.57;;
13672;SDS011;6909;52.202;9.876;2023-05-09T03:45:46;1.50;;;1.40;;
13672;SDS011;6909;52.202;9.876;2023-05-09T03:48:13;1.67;;;1.57;;
13672;SDS011;6909;52.202;9.876;2023-05-09T03:50:40;1.10;;;1.00;;
13672;SDS011;6909;52.202;9.876;2023-05-09T03:53:07;2.00;;;1.43;;
13672;SDS011;6909;52.202;9.876;2023-05-09T03:55:33;2.23;;;2.03;;
13672;SDS011;6909;52.202;9.876;2023-05-09T03:58:00;2.53;;;1.83;;
13672;SDS011;6909;52.202;9.876;2023-05-09T04:00:26;2.93;;;1.40;;
13672;SDS011;6909;52.202;9.876;2023-05-09T04:02:54;1.37;;;1.27;;
13672;SDS011;6909;52.202;9.876;2023-05-09T04:05:21;1.37;;;1.17;;
13672;SDS011;6909;52.202;9.876;2023-05-09T04:07:48;1.83;;;1.33;;
13672;SDS011;6909;52.202;9.876;2023-05-09T04:10:15;1.10;;;0.93;;
13672;SDS011;6909;52.202;9.876;2023-05-09T04:12:41;0.90;;;0.90;;
13672;SDS011;6909;52.202;9.876;2023-05-09T04:15:08;1.60;;;1.50;;
13672;SDS011;6909;52.202;9.876;2023-05-09T04:17:35;2.30;;;1.50;;
13672;SDS011;6909;52.202;9.876;2023-05-09T04:20:04;1.90;;;1.53;;
13672;SDS011;6909;52.202;9.876;2023-05-09T04:22:32;1.93;;;1.57;;
13672;SDS011;6909;52.202;9.876;2023-05-09T04:24:58;1.50;;;1.37;;
13672;SDS011;6909;52.202;9.876;2023-05-09T04:27:26;1.90;;;1.63;;
13672;SDS011;6909;52.202;9.876;2023-05-09T04:29:53;1.73;;;1.40;;
13672;SDS011;6909;52.202;9.876;2023-05-09T04:32:19;1.97;;;1.57;;
13672;SDS011;6909;52.202;9.876;2023-05-09T04:34:47;4.80;;;1.97;;
13672;SDS011;6909;52.202;9.876;2023-05-09T04:37:15;3.60;;;1.63;;
13672;SDS011;6909;52.202;9.876;2023-05-09T04:39:42;2.00;;;1.80;;
13672;SDS011;6909;52.202;9.876;2023-05-09T04:42:09;2.70;;;2.40;;
13672;SDS011;6909;52.202;9.876;2023-05-09T04:44:36;1.93;;;1.73;;
13672;SDS011;6909;52.202;9.876;2023-05-09T04:47:02;2.53;;;1.67;;
13672;SDS011;6909;52.202;9.876;2023-05-09T04:49:29;2.07;;;1.67;;
13672;SDS011;6909;52.202;9.876;2023-05-09T04:51:56;2.07;;;1.50;;
13672;SDS011;6909;52.202;9.876;2023-05-09T04:54:24;3.87;;;2.20;;
13672;SDS011;6909;52.202;9.876;2023-05-09T04:56:50;2.50;;;2.20;;
13672;SDS011;6909;52.202;9.876;2023-05-09T04:59:17;3.23;;;2.30;;
13672;SDS011;6909;52.202;9.876;2023-05-09T05:01:44;3.17;;;2.17;;
13672;SDS011;6909;52.202;9.876;2023-05-09T05:04:10;2.00;;;1.80;;
13672;SDS011;6909;52.202;9.876;2023-05-09T05:06:37;3.77;;;1.87;;
13672;SDS011;6909;52.202;9.876;2023-05-09T05:09:03;2.43;;;2.23;;
13672;SDS011;6909;52.202;9.876;2023-05-09T05:11:32;2.43;;;2.00;;
13672;SDS011;6909;52.202;9.876;2023-05-09T05:13:58;2.07;;;1.87;;
13672;SDS011;6909;52.202;9.876;2023-05-09T05:16:25;2.27;;;1.70;;
13672;SDS011;6909;52.202;9.876;2023-05-09T05:18:51;4.27;;;1.80;;
13672;SDS011;6909;52.202;9.876;2023-05-09T05:21:18;1.90;;;1.53;;
13672;SDS011;6909;52.202;9.876;2023-05-09T05:23:45;3.10;;;2.13;;
13672;SDS011;6909;52.202;9.876;2023-05-09T05:26:11;2.97;;;2.53;;
13672;SDS011;6909;52.202;9.876;2023-05-09T05:28:39;2.67;;;2.20;;
13672;SDS011;6909;52.202;9.876;2023-05-09T05:31:06;2.37;;;2.10;;
13672;SDS011;6909;52.202;9.876;2023-05-09T05:33:32;2.33;;;2.10;;
13672;SDS011;6909;52.202;9.876;2023-05-09T05:35:59;3.40;;;2.30;;
13672;SDS011;6909;52.202;9.876;2023-05-09T05:38:26;2.63;;;2.30;;
13672;SDS011;6909;52.202;9.876;2023-05-09T05:40:52;2.93;;;2.43;;
13672;SDS011;6909;52.202;9.876;2023-05-09T05:43:19;2.77;;;2.40;;
13672;SDS011;6909;52.202;9.876;2023-05-09T05:45:47;3.57;;;2.40;;
13672;SDS011;6909;52.202;9.876;2023-05-09T05:48:14;3.17;;;2.53;;
13672;SDS011;6909;52.202;9.876;2023-05-09T05:50:40;3.50;;;2.43;;
13672;SDS011;6909;52.202;9.876;2023-05-09T05:53:07;2.80;;;2.50;;
13672;SDS011;6909;52.202;9.876;2023-05-09T05:55:33;3.20;;;2.30;;
13672;SDS011;6909;52.202;9.876;2023-05-09T05:58:00;1.88;;;1.77;;
13672;SDS011;6909;52.202;9.876;2023-05-09T06:00:26;2.40;;;2.20;;
13672;SDS011;6909;52.202;9.876;2023-05-09T06:02:55;2.13;;;1.92;;
13672;SDS011;6909;52.202;9.876;2023-05-09T06:05:21;2.50;;;2.13;;
13672;SDS011;6909;52.202;9.876;2023-05-09T06:07:48;3.38;;;2.38;;
13672;SDS011;6909;52.202;9.876;2023-05-09T06:10:14;3.67;;;1.73;;
13672;SDS011;6909;52.202;9.876;2023-05-09T06:12:41;2.92;;;2.53;;
13672;SDS011;6909;52.202;9.876;2023-05-09T06:15:08;2.00;;;1.75;;
13672;SDS011;6909;52.202;9.876;2023-05-09T06:17:35;2.92;;;2.33;;
13672;SDS011;6909;52.202;9.876;2023-05-09T06:20:04;2.30;;;2.10;;
13672;SDS011;6909;52.202;9.876;2023-05-09T06:22:31;2.40;;;2.20;;
13672;SDS011;6909;52.202;9.876;2023-05-09T06:24:58;2.65;;;2.17;;
13672;SDS011;6909;52.202;9.876;2023-05-09T06:27:25;2.50;;;2.28;;
13672;SDS011;6909;52.202;9.876;2023-05-09T06:29:51;2.58;;;2.20;;
13672;SDS011;6909;52.202;9.876;2023-05-09T06:32:18;2.40;;;2.20;;
13672;SDS011;6909;52.202;9.876;2023-05-09T06:34:45;2.50;;;2.30;;
13672;SDS011;6909;52.202;9.876;2023-05-09T06:37:13;3.80;;;2.20;;
13672;SDS011;6909;52.202;9.876;2023-05-09T06:39:40;2.25;;;2.05;;
13672;SDS011;6909;52.202;9.876;2023-05-09T06:42:06;2.17;;;1.98;;
13672;SDS011;6909;52.202;9.876;2023-05-09T06:44:33;2.20;;;2.00;;
13672;SDS011;6909;52.202;9.876;2023-05-09T06:47:00;2.88;;;2.65;;
13672;SDS011;6909;52.202;9.876;2023-05-09T06:49:26;2.08;;;1.80;;
13672;SDS011;6909;52.202;9.876;2023-05-09T06:51:53;2.33;;;1.80;;
13672;SDS011;6909;52.202;9.876;2023-05-09T06:54:21;1.77;;;1.67;;
13672;SDS011;6909;52.202;9.876;2023-05-09T06:56:47;2.03;;;1.88;;
13672;SDS011;6909;52.202;9.876;2023-05-09T06:59:14;1.70;;;1.50;;
13672;SDS011;6909;52.202;9.876;2023-05-09T07:01:41;1.98;;;1.52;;
13672;SDS011;6909;52.202;9.876;2023-05-09T07:04:07;1.60;;;1.50;;
13672;SDS011;6909;52.202;9.876;2023-05-09T07:06:34;1.80;;;1.70;;
13672;SDS011;6909;52.202;9.876;2023-05-09T07:09:02;1.42;;;1.33;;
13672;SDS011;6909;52.202;9.876;2023-05-09T07:11:33;1.60;;;1.50;;
13672;SDS011;6909;52.202;9.876;2023-05-09T07:14:00;1.40;;;1.30;;
13672;SDS011;6909;52.202;9.876;2023-05-09T07:16:27;2.03;;;1.50;;
13672;SDS011;6909;52.202;9.876;2023-05-09T07:18:54;1.63;;;1.52;;
13672;SDS011;6909;52.202;9.876;2023-05-09T07:21:21;1.75;;;1.65;;
13672;SDS011;6909;52.202;9.876;2023-05-09T07:23:47;1.77;;;1.42;;
13672;SDS011;6909;52.202;9.876;2023-05-09T07:26:14;1.40;;;1.30;;
13672;SDS011;6909;52.202;9.876;2023-05-09T07:28:42;1.90;;;1.48;;
13672;SDS011;6909;52.202;9.876;2023-05-09T07:31:08;1.58;;;1.48;;
13672;SDS011;6909;52.202;9.876;2023-05-09T07:33:35;2.17;;;1.73;;
13672;SDS011;6909;52.202;9.876;2023-05-09T07:36:02;1.45;;;1.35;;
13672;SDS011;6909;52.202;9.876;2023-05-09T07:38:28;2.92;;;1.52;;
13672;SDS011;6909;52.202;9.876;2023-05-09T07:40:55;1.42;;;1.33;;
13672;SDS011;6909;52.202;9.876;2023-05-09T07:43:22;1.92;;;1.60;;
13672;SDS011;6909;52.202;9.876;2023-05-09T07:45:50;1.80;;;1.70;;
13672;SDS011;6909;52.202;9.876;2023-05-09T07:48:16;1.63;;;1.50;;
13672;SDS011;6909;52.202;9.876;2023-05-09T07:50:43;1.63;;;1.52;;
13672;SDS011;6909;52.202;9.876;2023-05-09T07:53:09;1.75;;;1.63;;
13672;SDS011;6909;52.202;9.876;2023-05-09T07:55:36;1.98;;;1.77;;
13672;SDS011;6909;52.202;9.876;2023-05-09T07:58:03;2.30;;;1.70;;
13672;SDS011;6909;52.202;9.876;2023-05-09T08:00:29;1.73;;;1.63;;
13672;SDS011;6909;52.202;9.876;2023-05-09T08:02:57;1.60;;;1.50;;
13672;SDS011;6909;52.202;9.876;2023-05-09T08:05:24;1.60;;;1.50;;
13672;SDS011;6909;52.202;9.876;2023-05-09T08:07:51;1.85;;;1.75;;
13672;SDS011;6909;52.202;9.876;2023-05-09T08:10:17;1.60;;;1.50;;
13672;SDS011;6909;52.202;9.876;2023-05-09T08:12:45;1.40;;;1.20;;
13672;SDS011;6909;52.202;9.876;2023-05-09T08:15:12;1.60;;;1.50;;
13672;SDS011;6909;52.202;9.876;2023-05-09T08:17:39;1.85;;;1.75;;
13672;SDS011;6909;52.202;9.876;2023-05-09T08:20:07;1.63;;;1.48;;
13672;SDS011;6909;52.202;9.876;2023-05-09T08:22:37;2.25;;;1.95;;
13672;SDS011;6909;52.202;9.876;2023-05-09T08:25:04;1.52;;;1.42;;
13672;SDS011;6909;52.202;9.876;2023-05-09T08:27:31;1.85;;;1.75;;
13672;SDS011;6909;52.202;9.876;2023-05-09T08:29:58;1.98;;;1.77;;
13672;SDS011;6909;52.202;9.876;2023-05-09T08:32:24;4.25;;;1.30;;
13672;SDS011;6909;52.202;9.876;2023-05-09T08:34:51;1.92;;;1.73;;
13672;SDS011;6909;52.202;9.876;2023-05-09T08:37:19;1.70;;;1.60;;
13672;SDS011;6909;52.202;9.876;2023-05-09T08:39:46;2.40;;;1.63;;
13672;SDS011;6909;52.202;9.876;2023-05-09T08:42:13;2.00;;;1.80;;
13672;SDS011;6909;52.202;9.876;2023-05-09T08:44:44;1.65;;;1.55;;
13672;SDS011;6909;52.202;9.876;2023-05-09T08:47:11;1.77;;;1.63;;
13672;SDS011;6909;52.202;9.876;2023-05-09T08:49:38;2.25;;;1.70;;
13672;SDS011;6909;52.202;9.876;2023-05-09T08:52:05;1.55;;;1.45;;
13672;SDS011;6909;52.202;9.876;2023-05-09T08:54:34;2.00;;;1.80;;
13672;SDS011;6909;52.202;9.876;2023-05-09T08:57:01;1.98;;;1.73;;
13672;SDS011;6909;52.202;9.876;2023-05-09T08:59:28;1.58;;;1.48;;
13672;SDS011;6909;52.202;9.876;2023-05-09T09:01:57;2.25;;;2.00;;
13672;SDS011;6909;52.202;9.876;2023-05-09T09:04:24;1.52;;;1.42;;
13672;SDS011;6909;52.202;9.876;2023-05-09T09:06:50;1.70;;;1.58;;
13672;SDS011;6909;52.202;9.876;2023-05-09T09:09:19;1.15;;;1.08;;
13672;SDS011;6909;52.202;9.876;2023-05-09T09:11:48;2.63;;;1.45;;
13672;SDS011;6909;52.202;9.876;2023-05-09T09:14:18;2.80;;;1.50;;
13672;SDS011;6909;52.202;9.876;2023-05-09T09:16:49;1.80;;;1.70;;
13672;SDS011;6909;52.202;9.876;2023-05-09T09:19:17;1.48;;;1.38;;
13672;SDS011;6909;52.202;9.876;2023-05-09T09:21:47;2.03;;;1.83;;
13672;SDS011;6909;52.202;9.876;2023-05-09T09:24:21;1.90;;;1.67;;
13672;SDS011;6909;52.202;9.876;2023-05-09T09:26:49;2.30;;;1.80;;
13672;SDS011;6909;52.202;9.876;2023-05-09T09:29:17;1.80;;;1.55;;
13672;SDS011;6909;52.202;9.876;2023-05-09T09:31:45;2.00;;;1.83;;
13672;SDS011;6909;52.202;9.876;2023-05-09T09:34:13;1.80;;;1.50;;
13672;SDS011;6909;52.202;9.876;2023-05-09T09:36:45;2.00;;;1.67;;
13672;SDS011;6909;52.202;9.876;2023-05-09T09:39:12;2.15;;;1.95;;
13672;SDS011;6909;52.202;9.876;2023-05-09T09:41:39;2.53;;;1.80;;
13672;SDS011;6909;52.202;9.876;2023-05-09T09:44:10;1.73;;;1.42;;
13672;SDS011;6909;52.202;9.876;2023-05-09T09:46:41;2.78;;;1.95;;
13672;SDS011;6909;52.202;9.876;2023-05-09T09:49:09;1.77;;;1.67;;
13672;SDS011;6909;52.202;9.876;2023-05-09T09:51:37;3.80;;;1.65;;
13672;SDS011;6909;52.202;9.876;2023-05-09T09:54:05;1.60;;;1.50;;
13672;SDS011;6909;52.202;9.876;2023-05-09T09:56:39;1.70;;;1.60;;
13672;SDS011;6909;52.202;9.876;2023-05-09T09:59:07;1.50;;;1.40;;
13672;SDS011;6909;52.202;9.876;2023-05-09T10:01:36;2.17;;;1.95;;
13672;SDS011;6909;52.202;9.876;2023-05-09T10:04:22;2.42;;;1.70;;
13672;SDS011;6909;52.202;9.876;2023-05-09T10:06:50;1.38;;;1.27;;
13672;SDS011;6909;52.202;9.876;2023-05-09T10:09:19;1.60;;;1.40;;
13672;SDS011;6909;52.202;9.876;2023-05-09T10:11:46;1.67;;;1.58;;
13672;SDS011;6909;52.202;9.876;2023-05-09T10:14:15;1.50;;;1.40;;
13672;SDS011;6909;52.202;9.876;2023-05-09T10:16:44;2.28;;;2.00;;
13672;SDS011;6909;52.202;9.876;2023-05-09T10:19:12;4.38;;;2.65;;
13672;SDS011;6909;52.202;9.876;2023-05-09T10:21:42;1.70;;;1.60;;
13672;SDS011;6909;52.202;9.876;2023-05-09T10:24:12;2.78;;;1.55;;
13672;SDS011;6909;52.202;9.876;2023-05-09T10:26:40;1.63;;;1.52;;
13672;SDS011;6909;52.202;9.876;2023-05-09T10:29:13;3.03;;;1.50;;
13672;SDS011;6909;52.202;9.876;2023-05-09T10:31:48;2.28;;;1.60;;
13672;SDS011;6909;52.202;9.876;2023-05-09T10:34:18;1.60;;;1.50;;
13672;SDS011;6909;52.202;9.876;2023-05-09T10:36:47;1.80;;;1.63;;
13672;SDS011;6909;52.202;9.876;2023-05-09T10:39:14;1.42;;;1.33;;
13672;SDS011;6909;52.202;9.876;2023-05-09T10:41:41;1.50;;;1.40;;
13672;SDS011;6909;52.202;9.876;2023-05-09T10:44:08;1.73;;;1.63;;
13672;SDS011;6909;52.202;9.876;2023-05-09T10:46:35;2.85;;;1.77;;
13672;SDS011;6909;52.202;9.876;2023-05-09T10:49:04;2.20;;;1.75;;
13672;SDS011;6909;52.202;9.876;2023-05-09T10:51:31;1.90;;;1.70;;
13672;SDS011;6909;52.202;9.876;2023-05-09T10:53:58;1.80;;;1.70;;
13672;SDS011;6909;52.202;9.876;2023-05-09T10:56:27;2.08;;;1.88;;
13672;SDS011;6909;52.202;9.876;2023-05-09T10:58:55;2.08;;;1.83;;
13672;SDS011;6909;52.202;9.876;2023-05-09T11:01:30;1.83;;;1.70;;
13672;SDS011;6909;52.202;9.876;2023-05-09T11:03:58;1.70;;;1.60;;
13672;SDS011;6909;52.202;9.876;2023-05-09T11:06:40;5.07;;;1.77;;
13672;SDS011;6909;52.202;9.876;2023-05-09T11:09:23;1.80;;;1.70;;
13672;SDS011;6909;52.202;9.876;2023-05-09T11:11:52;2.30;;;2.10;;
13672;SDS011;6909;52.202;9.876;2023-05-09T11:14:32;1.88;;;1.70;;
13672;SDS011;6909;52.202;9.876;2023-05-09T11:17:05;1.65;;;1.52;;
13672;SDS011;6909;52.202;9.876;2023-05-09T11:19:32;1.50;;;1.38;;
13672;SDS011;6909;52.202;9.876;2023-05-09T11:22:11;2.03;;;1.50;;
13672;SDS011;6909;52.202;9.876;2023-05-09T11:24:39;1.73;;;1.40;;
13672;SDS011;6909;52.202;9.876;2023-05-09T11:27:13;1.58;;;1.48;;
13672;SDS011;6909;52.202;9.876;2023-05-09T11:29:44;2.13;;;1.73;;
13672;SDS011;6909;52.202;9.876;2023-05-09T11:32:14;2.63;;;1.95;;
13672;SDS011;6909;52.202;9.876;2023-05-09T11:34:41;1.52;;;1.42;;
13672;SDS011;6909;52.202;9.876;2023-05-09T11:37:10;1.77;;;1.67;;
13672;SDS011;6909;52.202;9.876;2023-05-09T11:39:54;1.48;;;1.38;;
13672;SDS011;6909;52.202;9.876;2023-05-09T11:42:22;1.80;;;1.70;;
13672;SDS011;6909;52.202;9.876;2023-05-09T11:44:50;1.50;;;1.40;;
13672;SDS011;6909;52.202;9.876;2023-05-09T11:47:16;1.90;;;1.70;;
13672;SDS011;6909;52.202;9.876;2023-05-09T11:49:44;1.63;;;1.27;;
13672;SDS011;6909;52.202;9.876;2023-05-09T11:52:12;1.80;;;1.70;;
13672;SDS011;6909;52.202;9.876;2023-05-09T11:54:39;2.20;;;1.50;;
13672;SDS011;6909;52.202;9.876;2023-05-09T11:57:05;1.45;;;1.35;;
13672;SDS011;6909;52.202;9.876;2023-05-09T11:59:33;1.70;;;1.60;;
13672;SDS011;6909;52.202;9.876;2023-05-09T12:02:01;2.00;;;1.80;;
13672;SDS011;6909;52.202;9.876;2023-05-09T12:04:29;2.00;;;1.60;;
13672;SDS011;6909;52.202;9.876;2023-05-09T12:06:56;2.17;;;1.98;;
13672;SDS011;6909;52.202;9.876;2023-05-09T12:09:25;2.00;;;1.80;;
13672;SDS011;6909;52.202;9.876;2023-05-09T12:11:55;1.90;;;1.80;;
13672;SDS011;6909;52.202;9.876;2023-05-09T12:14:25;1.73;;;1.60;;
13672;SDS011;6909;52.202;9.876;2023-05-09T12:16:52;2.63;;;2.03;;
13672;SDS011;6909;52.202;9.876;2023-05-09T12:19:19;1.52;;;1.42;;
13672;SDS011;6909;52.202;9.876;2023-05-09T12:21:47;2.03;;;1.80;;
13672;SDS011;6909;52.202;9.876;2023-05-09T12:24:18;2.05;;;1.85;;
13672;SDS011;6909;52.202;9.876;2023-05-09T12:26:46;1.98;;;1.88;;
13672;SDS011;6909;52.202;9.876;2023-05-09T12:29:13;2.25;;;2.05;;
13672;SDS011;6909;52.202;9.876;2023-05-09T12:31:40;2.20;;;1.85;;
13672;SDS011;6909;52.202;9.876;2023-05-09T12:34:07;2.10;;;1.70;;
13672;SDS011;6909;52.202;9.876;2023-05-09T12:36:34;2.38;;;2.17;;
13672;SDS011;6909;52.202;9.876;2023-05-09T12:39:02;2.05;;;1.85;;
13672;SDS011;6909;52.202;9.876;2023-05-09T12:41:34;1.90;;;1.60;;
13672;SDS011;6909;52.202;9.876;2023-05-09T12:44:08;2.17;;;1.98;;
13672;SDS011;6909;52.202;9.876;2023-05-09T12:46:51;2.13;;;1.60;;
13672;SDS011;6909;52.202;9.876;2023-05-09T13:02:33;2.03;;;1.85;;
13672;SDS011;6909;52.202;9.876;2023-05-09T13:05:04;1.88;;;1.77;;
13672;SDS011;6909;52.202;9.876;2023-05-09T13:07:37;2.05;;;1.95;;
13672;SDS011;6909;52.202;9.876;2023-05-09T13:10:08;2.13;;;1.88;;
13672;SDS011;6909;52.202;9.876;2023-05-09T13:12:36;2.33;;;2.13;;
13672;SDS011;6909;52.202;9.876;2023-05-09T13:15:03;2.55;;;2.28;;
13672;SDS011;6909;52.202;9.876;2023-05-09T13:17:31;1.80;;;1.70;;
13672;SDS011;6909;52.202;9.876;2023-05-09T13:19:59;1.73;;;1.63;;
13672;SDS011;6909;52.202;9.876;2023-05-09T13:22:25;2.08;;;1.80;;
13672;SDS011;6909;52.202;9.876;2023-05-09T13:24:52;2.17;;;1.98;;
13672;SDS011;6909;52.202;9.876;2023-05-09T13:27:19;2.00;;;1.90;;
13672;SDS011;6909;52.202;9.876;2023-05-09T13:29:45;2.35;;;2.15;;
13672;SDS011;6909;52.202;9.876;2023-05-09T13:32:12;2.28;;;2.08;;
13672;SDS011;6909;52.202;9.876;2023-05-09T13:34:39;2.08;;;1.80;;
13672;SDS011;6909;52.202;9.876;2023-05-09T13:37:08;2.60;;;1.90;;
13672;SDS011;6909;52.202;9.876;2023-05-09T13:39:34;2.10;;;2.00;;
13672;SDS011;6909;52.202;9.876;2023-05-09T13:42:01;5.22;;;2.28;;
13672;SDS011;6909;52.202;9.876;2023-05-09T13:44:29;2.50;;;2.30;;
13672;SDS011;6909;52.202;9.876;2023-05-09T13:46:55;2.20;;;1.95;;
13672;SDS011;6909;52.202;9.876;2023-05-09T13:49:24;2.60;;;2.13;;
13672;SDS011;6909;52.202;9.876;2023-05-09T13:51:51;2.60;;;2.25;;
13672;SDS011;6909;52.202;9.876;2023-05-09T13:54:20;2.58;;;2.13;;
13672;SDS011;6909;52.202;9.876;2023-05-09T13:56:47;2.17;;;1.98;;
13672;SDS011;6909;52.202;9.876;2023-05-09T13:59:15;2.10;;;1.80;;
13672;SDS011;6909;52.202;9.876;2023-05-09T14:01:41;4.45;;;1.98;;
13672;SDS011;6909;52.202;9.876;2023-05-09T14:04:08;2.53;;;2.03;;
13672;SDS011;6909;52.202;9.876;2023-05-09T14:06:35;2.40;;;2.20;;
13672;SDS011;6909;52.202;9.876;2023-05-09T14:09:01;4.13;;;2.00;;
13672;SDS011;6909;52.202;9.876;2023-05-09T14:11:29;2.63;;;2.30;;
13672;SDS011;6909;52.202;9.876;2023-05-09T14:13:56;1.98;;;1.77;;
13672;SDS011;6909;52.202;9.876;2023-05-09T14:16:23;3.72;;;2.05;;
13672;SDS011;6909;52.202;9.876;2023-05-09T14:18:50;2.72;;;2.40;;
13672;SDS011;6909;52.202;9.876;2023-05-09T14:21:16;2.45;;;2.25;;
13672;SDS011;6909;52.202;9.876;2023-05-09T14:23:43;2.10;;;1.88;;
13672;SDS011;6909;52.202;9.876;2023-05-09T14:26:11;2.28;;;2.05;;
13672;SDS011;6909;52.202;9.876;2023-05-09T14:28:39;2.22;;;2.10;;
13672;SDS011;6909;52.202;9.876;2023-05-09T14:31:06;3.75;;;2.05;;
13672;SDS011;6909;52.202;9.876;2023-05-09T14:33:33;2.30;;;2.10;;
13672;SDS011;6909;52.202;9.876;2023-05-09T14:36:00;3.05;;;1.90;;
13672;SDS011;6909;52.202;9.876;2023-05-09T14:38:27;2.50;;;2.30;;
13672;SDS011;6909;52.202;9.876;2023-05-09T14:40:54;2.10;;;1.90;;
13672;SDS011;6909;52.202;9.876;2023-05-09T14:43:21;2.88;;;2.03;;
13672;SDS011;6909;52.202;9.876;2023-05-09T14:45:49;3.42;;;2.20;;
13672;SDS011;6909;52.202;9.876;2023-05-09T14:48:16;3.20;;;2.40;;
13672;SDS011;6909;52.202;9.876;2023-05-09T14:50:43;3.38;;;2.15;;
13672;SDS011;6909;52.202;9.876;2023-05-09T14:53:09;2.20;;;1.95;;
13672;SDS011;6909;52.202;9.876;2023-05-09T14:55:38;3.33;;;2.10;;
13672;SDS011;6909;52.202;9.876;2023-05-09T14:58:05;2.60;;;1.73;;
13672;SDS011;6909;52.202;9.876;2023-05-09T15:00:31;3.55;;;2.28;;
13672;SDS011;6909;52.202;9.876;2023-05-09T15:03:00;2.13;;;1.92;;
13672;SDS011;6909;52.202;9.876;2023-05-09T15:05:27;2.85;;;2.20;;
13672;SDS011;6909;52.202;9.876;2023-05-09T15:07:53;2.28;;;2.08;;
13672;SDS011;6909;52.202;9.876;2023-05-09T15:10:20;2.20;;;2.03;;
13672;SDS011;6909;52.202;9.876;2023-05-09T15:12:47;2.60;;;2.00;;
13672;SDS011;6909;52.202;9.876;2023-05-09T15:15:14;2.25;;;1.92;;
13672;SDS011;6909;52.202;9.876;2023-05-09T15:17:42;3.45;;;1.77;;
13672;SDS011;6909;52.202;9.876;2023-05-09T15:20:12;2.80;;;2.60;;